Time;durP1;ratioP1;P1;durP2;ratioP2;P2;SDS_P1;SDS_P2;PMS_P1;PMS_P2;Temp;Humidity;BMP_temperature;BMP_pressure;BME280_temperature;BME280_humidity;BME280_pressure;Samples;Min_cycle;Max_cycle;Signal;HPM_P1;HPM_P2
2022/08/19 00:02:38;;;;;;;3.72;3.53;;;;;;;;;;5116743;27;20205;-58
2022/08/19 00:05:25;;;;;;;3.90;3.70;;;;;;;;;;5095492;28;20608;-58
2022/08/19 00:08:12;;;;;;;3.55;3.35;;;;;;;;;;5113980;27;20686;-58
2022/08/19 00:10:59;;;;;;;3.28;3.17;;;;;;;;;;5099659;27;20255;-59
2022/08/19 00:13:48;;;;;;;3.78;3.58;;;;;;;;;;5112138;27;20271;-59
2022/08/19 00:16:36;;;;;;;3.83;3.63;;;;;;;;;;5110803;27;20684;-58
2022/08/19 00:19:24;;;;;;;3.70;3.50;;;;;;;;;;5108044;27;20215;-58
2022/08/19 00:22:11;;;;;;;3.65;3.45;;;;;;;;;;5099831;27;20205;-58
2022/08/19 00:24:58;;;;;;;3.47;3.38;;;;;;;;;;5116909;27;20209;-59
2022/08/19 00:27:45;;;;;;;3.90;3.70;;;;;;;;;;5115916;27;20298;-58
2022/08/19 00:30:32;;;;;;;3.50;3.30;;;;;;;;;;5119702;27;20211;-59
2022/08/19 00:33:21;;;;;;;3.40;3.20;;;;;;;;;;5114752;27;20938;-58
2022/08/19 00:36:10;;;;;;;3.45;3.25;;;;;;;;;;5118483;27;20217;-58
2022/08/19 00:38:57;;;;;;;3.58;3.47;;;;;;;;;;5117237;27;20236;-58
2022/08/19 00:41:47;;;;;;;3.90;3.60;;;;;;;;;;5115135;27;20210;-58
2022/08/19 00:44:34;;;;;;;3.63;3.47;;;;;;;;;;5118266;27;20211;-58
2022/08/19 00:47:21;;;;;;;3.72;3.53;;;;;;;;;;5110306;27;20675;-59
2022/08/19 00:50:12;;;;;;;3.50;3.40;;;;;;;;;;5117066;27;20278;-58
2022/08/19 00:52:59;;;;;;;3.80;3.50;;;;;;;;;;5110553;27;20237;-58
2022/08/19 00:55:48;;;;;;;3.42;3.33;;;;;;;;;;5117211;27;20657;-58
2022/08/19 00:58:36;;;;;;;3.50;3.40;;;;;;;;;;5117231;27;20208;-59
2022/08/19 01:01:23;;;;;;;4.05;3.85;;;;;;;;;;5119874;27;20220;-58
2022/08/19 01:04:10;;;;;;;3.40;3.30;;;;;;;;;;5110644;27;20231;-58
2022/08/19 01:06:59;;;;;;;3.47;3.38;;;;;;;;;;5117884;27;20216;-59
2022/08/19 01:09:47;;;;;;;3.35;3.25;;;;;;;;;;5104472;27;20665;-59
2022/08/19 01:12:34;;;;;;;3.47;3.38;;;;;;;;;;5117567;27;20259;-58
2022/08/19 01:15:26;;;;;;;3.40;3.30;;;;;;;;;;5107290;27;20627;-59
2022/08/19 01:18:17;;;;;;;3.10;3.00;;;;;;;;;;5117946;27;20434;-58
2022/08/19 01:21:11;;;;;;;3.70;3.50;;;;;;;;;;5109079;27;20663;-58
2022/08/19 01:24:00;;;;;;;3.35;3.25;;;;;;;;;;5116843;27;20308;-58
2022/08/19 01:26:47;;;;;;;3.50;3.30;;;;;;;;;;5105558;27;20212;-59
2022/08/19 01:29:35;;;;;;;3.15;3.05;;;;;;;;;;5118134;27;20431;-58
2022/08/19 01:32:22;;;;;;;3.30;3.20;;;;;;;;;;5108418;27;20227;-58
2022/08/19 01:35:11;;;;;;;3.60;3.40;;;;;;;;;;5115156;27;20219;-59
2022/08/19 01:38:00;;;;;;;4.00;3.80;;;;;;;;;;5099395;28;20346;-58
2022/08/19 01:40:49;;;;;;;3.20;3.10;;;;;;;;;;5108634;27;20204;-58
2022/08/19 01:43:36;;;;;;;3.55;3.35;;;;;;;;;;5114633;27;20273;-58
2022/08/19 01:46:23;;;;;;;3.47;3.28;;;;;;;;;;5103634;28;20699;-58
2022/08/19 01:49:11;;;;;;;3.40;3.30;;;;;;;;;;5107543;28;20211;-59
2022/08/19 01:51:59;;;;;;;3.67;3.55;;;;;;;;;;5111326;28;20223;-58
2022/08/19 01:54:46;;;;;;;3.60;3.40;;;;;;;;;;5110344;28;20220;-59
2022/08/19 01:57:35;;;;;;;3.28;3.17;;;;;;;;;;5110685;28;20231;-58
2022/08/19 02:00:25;;;;;;;3.72;3.42;;;;;;;;;;5111786;28;20208;-58
2022/08/19 02:03:12;;;;;;;3.05;2.95;;;;;;;;;;5110010;28;20601;-58
2022/08/19 02:06:02;;;;;;;3.25;3.15;;;;;;;;;;5113902;28;20722;-59
2022/08/19 02:08:49;;;;;;;3.53;3.33;;;;;;;;;;5110639;28;20212;-59
2022/08/19 02:11:37;;;;;;;3.67;3.47;;;;;;;;;;5114277;28;20298;-58
2022/08/19 02:14:26;;;;;;;3.28;3.15;;;;;;;;;;5113038;28;20202;-58
2022/08/19 02:17:13;;;;;;;3.40;3.30;;;;;;;;;;5116977;28;20700;-58
2022/08/19 02:20:00;;;;;;;3.30;3.20;;;;;;;;;;5103773;28;20225;-58
2022/08/19 02:22:47;;;;;;;3.17;3.07;;;;;;;;;;5117430;28;20210;-58
2022/08/19 02:25:34;;;;;;;3.13;3.03;;;;;;;;;;5100340;28;20203;-58
2022/08/19 02:28:21;;;;;;;3.33;3.22;;;;;;;;;;5113998;27;20660;-58
2022/08/19 02:31:14;;;;;;;3.20;3.00;;;;;;;;;;5114997;27;20219;-59
2022/08/19 02:34:01;;;;;;;3.15;3.05;;;;;;;;;;5117469;27;20231;-58
2022/08/19 02:36:48;;;;;;;3.13;3.03;;;;;;;;;;5109329;27;20209;-59
2022/08/19 02:39:34;;;;;;;3.20;3.10;;;;;;;;;;5119314;27;20378;-58
2022/08/19 02:42:21;;;;;;;3.28;3.10;;;;;;;;;;5115036;27;20273;-58
2022/08/19 02:45:09;;;;;;;3.20;3.10;;;;;;;;;;5122002;27;20224;-58
2022/08/19 02:47:58;;;;;;;3.45;3.25;;;;;;;;;;5098897;28;20212;-58
2022/08/19 02:50:45;;;;;;;3.03;2.92;;;;;;;;;;5120129;27;20205;-59
2022/08/19 02:53:32;;;;;;;2.92;2.83;;;;;;;;;;5101494;28;20309;-59
2022/08/19 02:56:19;;;;;;;3.05;2.95;;;;;;;;;;5124787;27;20208;-58
2022/08/19 02:59:08;;;;;;;3.10;3.00;;;;;;;;;;5109834;27;20209;-58
2022/08/19 03:01:55;;;;;;;3.08;2.88;;;;;;;;;;5121108;27;20200;-58
2022/08/19 03:04:43;;;;;;;3.08;2.97;;;;;;;;;;5107167;27;20248;-59
2022/08/19 03:07:30;;;;;;;2.88;2.78;;;;;;;;;;5121495;27;20211;-58
2022/08/19 03:10:17;;;;;;;3.17;2.97;;;;;;;;;;5111421;27;20662;-58
2022/08/19 03:13:04;;;;;;;3.10;3.00;;;;;;;;;;5111754;27;20228;-59
2022/08/19 03:15:51;;;;;;;3.30;3.10;;;;;;;;;;5105142;27;20234;-58
2022/08/19 03:18:38;;;;;;;2.90;2.80;;;;;;;;;;5120669;27;20623;-58
2022/08/19 03:21:29;;;;;;;2.80;2.70;;;;;;;;;;5115256;27;20291;-58
2022/08/19 03:24:18;;;;;;;2.92;2.83;;;;;;;;;;5117307;27;20199;-58
2022/08/19 03:27:05;;;;;;;2.65;2.55;;;;;;;;;;5120996;27;20217;-59
2022/08/19 03:29:52;;;;;;;2.53;2.43;;;;;;;;;;5118379;27;20789;-58
2022/08/19 03:32:39;;;;;;;2.97;2.87;;;;;;;;;;5111536;27;20229;-59
2022/08/19 03:35:26;;;;;;;2.90;2.80;;;;;;;;;;5112460;27;20216;-58
2022/08/19 03:38:15;;;;;;;3.10;3.00;;;;;;;;;;5112381;27;20207;-58
2022/08/19 03:41:07;;;;;;;2.80;2.70;;;;;;;;;;5106219;28;20209;-58
2022/08/19 03:43:55;;;;;;;2.75;2.65;;;;;;;;;;5119633;27;20199;-58
2022/08/19 03:46:42;;;;;;;2.90;2.80;;;;;;;;;;5113833;27;20338;-59
2022/08/19 03:49:32;;;;;;;3.00;2.90;;;;;;;;;;5109047;27;20272;-59
2022/08/19 03:52:19;;;;;;;2.70;2.60;;;;;;;;;;5106339;27;20224;-58
2022/08/19 03:55:08;;;;;;;2.90;2.80;;;;;;;;;;5119012;27;20220;-58
2022/08/19 03:57:56;;;;;;;2.60;2.50;;;;;;;;;;5113751;27;20213;-58
2022/08/19 04:00:43;;;;;;;2.80;2.70;;;;;;;;;;5122847;27;20586;-58
2022/08/19 04:03:30;;;;;;;2.70;2.60;;;;;;;;;;5101985;27;20211;-58
2022/08/19 04:06:20;;;;;;;2.80;2.60;;;;;;;;;;5104315;28;20646;-58
2022/08/19 04:09:09;;;;;;;2.50;2.40;;;;;;;;;;5090135;28;20583;-58
2022/08/19 04:11:59;;;;;;;2.80;2.70;;;;;;;;;;5099928;28;20211;-58
2022/08/19 04:14:47;;;;;;;2.50;2.40;;;;;;;;;;5083570;28;20208;-59
2022/08/19 04:17:34;;;;;;;2.65;2.55;;;;;;;;;;5086522;28;20212;-58
2022/08/19 04:20:20;;;;;;;2.53;2.42;;;;;;;;;;5080492;28;20212;-59
2022/08/19 04:23:07;;;;;;;2.45;2.35;;;;;;;;;;5089065;28;20549;-58
2022/08/19 04:25:55;;;;;;;2.77;2.67;;;;;;;;;;5091376;28;20202;-59
2022/08/19 04:28:44;;;;;;;2.90;2.80;;;;;;;;;;5089942;28;20210;-58
2022/08/19 04:31:35;;;;;;;2.80;2.70;;;;;;;;;;5086582;28;20215;-58
2022/08/19 04:34:24;;;;;;;2.80;2.70;;;;;;;;;;5096325;28;20829;-58
2022/08/19 04:37:12;;;;;;;2.63;2.53;;;;;;;;;;5093523;28;20214;-58
2022/08/19 04:43:03;;;;;;;2.90;2.80;;;;;;;;;;5083126;28;20208;-58
2022/08/19 04:45:52;;;;;;;2.67;2.58;;;;;;;;;;5098757;28;20216;-59
2022/08/19 04:48:39;;;;;;;2.63;2.53;;;;;;;;;;5095391;28;20307;-58
2022/08/19 04:51:26;;;;;;;2.50;2.40;;;;;;;;;;5081875;28;20623;-58
2022/08/19 04:54:14;;;;;;;2.58;2.47;;;;;;;;;;5097803;28;20234;-58
2022/08/19 04:57:01;;;;;;;2.53;2.42;;;;;;;;;;5083722;28;20618;-58
2022/08/19 04:59:48;;;;;;;2.75;2.65;;;;;;;;;;5095313;28;20877;-62
2022/08/19 05:02:37;;;;;;;2.58;2.47;;;;;;;;;;5089333;28;20205;-58
2022/08/19 05:05:24;;;;;;;2.83;2.72;;;;;;;;;;5113162;27;20229;-58
2022/08/19 05:08:12;;;;;;;2.70;2.60;;;;;;;;;;5100918;27;20270;-59
2022/08/19 05:10:59;;;;;;;2.70;2.60;;;;;;;;;;5122840;27;20206;-58
2022/08/19 05:13:48;;;;;;;2.80;2.70;;;;;;;;;;5114029;27;20315;-58
2022/08/19 05:16:35;;;;;;;2.40;2.30;;;;;;;;;;5112915;27;20288;-58
2022/08/19 05:22:34;;;;;;;2.70;2.60;;;;;;;;;;5118537;27;20587;-58
2022/08/19 05:25:22;;;;;;;2.20;2.20;;;;;;;;;;5112935;27;20205;-58
2022/08/19 05:28:09;;;;;;;2.80;2.63;;;;;;;;;;5112018;27;20727;-58
2022/08/19 05:30:56;;;;;;;2.50;2.40;;;;;;;;;;5112122;27;20576;-58
2022/08/19 05:33:43;;;;;;;2.70;2.60;;;;;;;;;;5116250;27;20218;-58
2022/08/19 05:36:39;;;;;;;2.60;2.50;;;;;;;;;;5097907;27;20672;-58
2022/08/19 05:39:29;;;;;;;2.70;2.60;;;;;;;;;;5120358;27;20207;-59
2022/08/19 05:42:16;;;;;;;2.80;2.70;;;;;;;;;;5116685;27;20217;-58
2022/08/19 05:45:04;;;;;;;2.80;2.70;;;;;;;;;;5105557;28;20283;-58
2022/08/19 05:47:51;;;;;;;2.60;2.50;;;;;;;;;;5113541;28;20208;-59
2022/08/19 05:50:38;;;;;;;2.70;2.60;;;;;;;;;;5111673;28;20751;-58
2022/08/19 05:53:26;;;;;;;2.88;2.78;;;;;;;;;;5109940;28;20240;-58
2022/08/19 05:56:16;;;;;;;2.33;2.28;;;;;;;;;;5098105;28;20241;-58
2022/08/19 05:59:10;;;;;;;2.60;2.50;;;;;;;;;;5116521;28;20210;-59
2022/08/19 06:01:57;;;;;;;2.70;2.60;;;;;;;;;;5112360;28;20670;-58
2022/08/19 06:04:44;;;;;;;2.70;2.60;;;;;;;;;;5117919;27;20235;-58
2022/08/19 06:07:31;;;;;;;2.60;2.50;;;;;;;;;;5115183;27;20205;-58
2022/08/19 06:10:20;;;;;;;2.83;2.72;;;;;;;;;;5122044;27;20209;-58
2022/08/19 06:13:07;;;;;;;2.80;2.70;;;;;;;;;;5119171;27;20566;-58
2022/08/19 06:15:54;;;;;;;2.80;2.70;;;;;;;;;;5123070;27;20217;-59
2022/08/19 06:18:41;;;;;;;3.03;2.92;;;;;;;;;;5107388;27;20689;-64
2022/08/19 06:21:29;;;;;;;2.70;2.60;;;;;;;;;;5125843;27;20205;-59
2022/08/19 06:24:18;;;;;;;3.00;2.90;;;;;;;;;;5102345;28;20239;-59
2022/08/19 06:27:07;;;;;;;2.70;2.60;;;;;;;;;;5111235;27;20612;-58
2022/08/19 06:29:54;;;;;;;2.80;2.70;;;;;;;;;;5111891;27;20349;-62
2022/08/19 06:32:41;;;;;;;2.60;2.50;;;;;;;;;;5123223;27;20692;-58
2022/08/19 06:35:29;;;;;;;2.70;2.60;;;;;;;;;;5111138;27;20210;-59
2022/08/19 06:38:16;;;;;;;3.08;2.97;;;;;;;;;;5113724;27;20235;-59
2022/08/19 06:41:05;;;;;;;2.95;2.85;;;;;;;;;;5106637;27;20212;-58
2022/08/19 06:43:53;;;;;;;3.00;2.90;;;;;;;;;;5124773;27;20239;-59
2022/08/19 06:46:41;;;;;;;2.95;2.85;;;;;;;;;;5111570;27;20237;-59
2022/08/19 06:49:30;;;;;;;3.03;2.92;;;;;;;;;;5115855;27;20281;-59
2022/08/19 06:52:17;;;;;;;3.00;2.90;;;;;;;;;;5110492;27;20203;-58
2022/08/19 06:55:05;;;;;;;3.10;3.00;;;;;;;;;;5122052;27;20236;-60
2022/08/19 06:57:52;;;;;;;2.70;2.60;;;;;;;;;;5106018;27;20206;-59
2022/08/19 07:00:41;;;;;;;3.03;2.92;;;;;;;;;;5106716;27;20205;-58
2022/08/19 07:03:30;;;;;;;3.38;3.05;;;;;;;;;;5110187;27;20193;-59
2022/08/19 07:06:20;;;;;;;2.85;2.75;;;;;;;;;;5116190;27;20240;-59
2022/08/19 07:09:08;;;;;;;2.95;2.85;;;;;;;;;;5107224;27;20584;-58
2022/08/19 07:11:56;;;;;;;3.35;3.25;;;;;;;;;;5106084;27;20207;-59
2022/08/19 07:14:45;;;;;;;3.05;2.95;;;;;;;;;;5113372;27;20227;-58
2022/08/19 07:17:34;;;;;;;3.38;3.25;;;;;;;;;;5109166;27;20204;-58
2022/08/19 07:20:21;;;;;;;3.80;3.60;;;;;;;;;;5113496;27;20592;-58
2022/08/19 07:23:08;;;;;;;3.83;3.65;;;;;;;;;;5115197;27;20208;-59
2022/08/19 07:25:56;;;;;;;3.50;3.40;;;;;;;;;;5117129;27;20207;-58
2022/08/19 07:28:44;;;;;;;3.38;3.28;;;;;;;;;;5116882;27;20202;-59
2022/08/19 07:31:31;;;;;;;3.70;3.50;;;;;;;;;;5113664;27;20277;-58
2022/08/19 07:34:20;;;;;;;3.70;3.60;;;;;;;;;;5106363;27;20239;-58
2022/08/19 07:37:07;;;;;;;3.50;3.30;;;;;;;;;;5122600;27;20204;-59
2022/08/19 07:39:55;;;;;;;3.50;3.40;;;;;;;;;;5105946;27;20203;-59
2022/08/19 07:42:43;;;;;;;3.60;3.45;;;;;;;;;;5121268;27;20209;-58
2022/08/19 07:45:31;;;;;;;3.60;3.40;;;;;;;;;;5109571;27;20194;-58
2022/08/19 07:48:18;;;;;;;3.90;3.70;;;;;;;;;;5114496;27;20283;-58
2022/08/19 07:51:08;;;;;;;3.63;3.50;;;;;;;;;;5105541;27;20275;-58
2022/08/19 07:53:55;;;;;;;3.60;3.50;;;;;;;;;;5121404;27;20326;-59
2022/08/19 07:56:42;;;;;;;3.60;3.50;;;;;;;;;;5115356;27;20213;-58
2022/08/19 07:59:29;;;;;;;4.10;3.80;;;;;;;;;;5113878;27;20209;-58
2022/08/19 08:02:16;;;;;;;4.00;3.80;;;;;;;;;;5110220;27;20225;-58
2022/08/19 08:11:25;;;;;;;4.05;3.85;;;;;;;;;;5028437;28;20243;-59
2022/08/19 08:14:12;;;;;;;3.70;3.50;;;;;;;;;;5028784;28;20650;-58
2022/08/19 08:17:00;;;;;;;3.67;3.58;;;;;;;;;;5098193;27;20209;-59
2022/08/19 08:19:50;;;;;;;3.80;3.70;;;;;;;;;;5111611;27;20220;-58
2022/08/19 08:25:43;;;;;;;4.15;3.85;;;;;;;;;;5118658;27;20208;-59
2022/08/19 08:28:30;;;;;;;3.88;3.67;;;;;;;;;;5114067;27;20204;-59
2022/08/19 08:31:18;;;;;;;4.25;4.05;;;;;;;;;;5111341;27;20229;-59
2022/08/19 08:34:05;;;;;;;4.00;3.80;;;;;;;;;;5102738;27;20317;-58
2022/08/19 08:36:52;;;;;;;4.05;3.85;;;;;;;;;;5117522;27;20199;-58
2022/08/19 08:39:39;;;;;;;4.22;4.00;;;;;;;;;;5116722;27;20676;-59
2022/08/19 08:42:32;;;;;;;4.13;3.92;;;;;;;;;;5120925;27;20220;-58
2022/08/19 08:45:19;;;;;;;3.85;3.65;;;;;;;;;;5108499;27;20371;-58
2022/08/19 08:48:21;;;;;;;4.25;4.05;;;;;;;;;;5109236;27;20558;-59
2022/08/19 08:51:15;;;;;;;4.22;4.03;;;;;;;;;;5101495;27;20209;-59
2022/08/19 08:54:06;;;;;;;3.72;3.63;;;;;;;;;;5114155;27;20226;-58
2022/08/19 08:56:54;;;;;;;4.57;4.30;;;;;;;;;;5114360;27;20197;-59
2022/08/19 08:59:51;;;;;;;4.03;3.83;;;;;;;;;;5109667;27;20270;-59
2022/08/19 09:02:39;;;;;;;4.20;4.00;;;;;;;;;;5113710;27;20211;-59
2022/08/19 09:05:31;;;;;;;4.28;4.07;;;;;;;;;;5118751;27;20315;-58
2022/08/19 09:08:26;;;;;;;4.30;4.00;;;;;;;;;;5119499;27;20206;-59
2022/08/19 09:11:18;;;;;;;4.65;4.45;;;;;;;;;;5115671;27;20209;-58
2022/08/19 09:14:17;;;;;;;4.40;4.20;;;;;;;;;;5111010;27;20226;-59
2022/08/19 09:17:07;;;;;;;4.32;4.13;;;;;;;;;;5113810;27;20203;-58
2022/08/19 09:19:57;;;;;;;4.20;4.00;;;;;;;;;;5117480;27;20205;-59
2022/08/19 09:22:44;;;;;;;4.40;4.20;;;;;;;;;;5113299;27;20202;-59
2022/08/19 09:25:34;;;;;;;4.10;3.90;;;;;;;;;;5120576;27;20213;-59
2022/08/19 09:28:21;;;;;;;4.00;3.80;;;;;;;;;;5110616;27;20205;-58
2022/08/19 09:31:08;;;;;;;4.30;4.10;;;;;;;;;;5119774;27;20668;-59
2022/08/19 09:33:57;;;;;;;4.32;4.13;;;;;;;;;;5102053;28;20315;-59
2022/08/19 09:36:44;;;;;;;4.47;4.28;;;;;;;;;;5119001;27;20213;-58
2022/08/19 09:39:31;;;;;;;4.28;4.07;;;;;;;;;;5112297;27;20223;-59
2022/08/19 09:42:18;;;;;;;4.72;4.53;;;;;;;;;;5108664;27;20219;-58
2022/08/19 09:45:07;;;;;;;4.97;4.78;;;;;;;;;;5109608;28;20213;-59
2022/08/19 09:47:54;;;;;;;4.57;4.38;;;;;;;;;;5116480;27;20228;-59
2022/08/19 09:50:42;;;;;;;4.35;4.15;;;;;;;;;;5095903;28;20203;-58
2022/08/19 09:53:29;;;;;;;4.60;4.40;;;;;;;;;;5117518;28;20281;-58
2022/08/19 09:56:16;;;;;;;4.95;4.63;;;;;;;;;;5103996;28;20604;-58
2022/08/19 09:59:04;;;;;;;5.00;4.60;;;;;;;;;;5115313;28;20208;-58
2022/08/19 10:01:52;;;;;;;4.50;4.30;;;;;;;;;;5100679;28;20585;-59
2022/08/19 10:07:44;;;;;;;4.55;4.35;;;;;;;;;;5112307;28;20206;-58
2022/08/19 10:10:36;;;;;;;4.25;4.05;;;;;;;;;;5112540;28;20205;-59
2022/08/19 10:13:29;;;;;;;4.68;4.47;;;;;;;;;;5112572;28;20672;-59
2022/08/19 10:16:19;;;;;;;4.57;4.38;;;;;;;;;;5117365;28;20229;-59
2022/08/19 10:19:06;;;;;;;4.90;4.70;;;;;;;;;;5104252;28;20262;-59
2022/08/19 10:21:53;;;;;;;4.70;4.50;;;;;;;;;;5107855;28;20428;-59
2022/08/19 10:24:41;;;;;;;4.50;4.20;;;;;;;;;;5118975;28;20323;-59
2022/08/19 10:27:28;;;;;;;4.63;4.43;;;;;;;;;;5111960;28;20576;-58
2022/08/19 10:30:15;;;;;;;4.90;4.60;;;;;;;;;;5121627;28;20213;-58
2022/08/19 10:33:02;;;;;;;4.60;4.40;;;;;;;;;;5108305;28;20209;-59
2022/08/19 10:35:49;;;;;;;4.97;4.68;;;;;;;;;;5115180;28;20228;-58
2022/08/19 10:38:36;;;;;;;4.70;4.50;;;;;;;;;;5106942;28;20217;-59
2022/08/19 10:41:27;;;;;;;4.65;4.45;;;;;;;;;;5116592;28;20656;-59
2022/08/19 10:44:15;;;;;;;4.82;4.63;;;;;;;;;;5107491;28;20557;-59
2022/08/19 10:47:03;;;;;;;4.75;4.47;;;;;;;;;;5122071;28;20728;-58
2022/08/19 10:52:55;;;;;;;5.15;4.85;;;;;;;;;;5123018;27;20205;-58
2022/08/19 10:58:48;;;;;;;4.70;4.45;;;;;;;;;;5123062;27;20213;-58
2022/08/19 11:01:36;;;;;;;4.05;3.85;;;;;;;;;;5108298;27;20223;-59
2022/08/19 11:04:23;;;;;;;4.57;4.38;;;;;;;;;;5119574;27;20225;-59
2022/08/19 11:07:11;;;;;;;4.40;4.20;;;;;;;;;;5102443;27;20221;-59
2022/08/19 11:09:58;;;;;;;4.32;4.13;;;;;;;;;;5104006;28;20205;-59
2022/08/19 11:12:46;;;;;;;4.43;4.22;;;;;;;;;;5119473;27;20204;-59
2022/08/19 11:15:35;;;;;;;4.50;4.30;;;;;;;;;;5119280;27;20225;-59
2022/08/19 11:18:22;;;;;;;4.53;4.32;;;;;;;;;;5115877;27;20234;-59
2022/08/19 11:21:11;;;;;;;4.38;4.18;;;;;;;;;;5113622;27;20234;-59
2022/08/19 11:24:01;;;;;;;4.72;4.43;;;;;;;;;;5112825;27;20212;-59
2022/08/19 11:26:50;;;;;;;4.80;4.50;;;;;;;;;;5109740;27;20212;-59
2022/08/19 11:29:39;;;;;;;4.60;4.40;;;;;;;;;;5113228;27;20206;-59
2022/08/19 11:32:27;;;;;;;4.93;4.63;;;;;;;;;;5109863;27;20285;-59
2022/08/19 11:35:14;;;;;;;4.43;4.22;;;;;;;;;;5115085;27;20232;-59
2022/08/19 11:38:02;;;;;;;4.45;4.25;;;;;;;;;;5105513;27;20477;-59
2022/08/19 11:40:56;;;;;;;5.10;4.80;;;;;;;;;;5119709;27;20665;-59
2022/08/19 11:43:43;;;;;;;4.50;4.30;;;;;;;;;;5111578;27;20206;-59
2022/08/19 11:46:30;;;;;;;4.60;4.40;;;;;;;;;;5111150;27;20206;-59
2022/08/19 11:49:20;;;;;;;4.22;4.03;;;;;;;;;;5110882;27;20208;-58
2022/08/19 11:52:07;;;;;;;4.40;4.20;;;;;;;;;;5119886;27;20204;-59
2022/08/19 11:54:54;;;;;;;4.85;4.60;;;;;;;;;;5100049;27;20257;-59
2022/08/19 11:57:43;;;;;;;4.68;4.47;;;;;;;;;;5112920;27;20215;-59
2022/08/19 12:00:30;;;;;;;5.00;4.80;;;;;;;;;;5113545;27;20973;-59
2022/08/19 12:03:17;;;;;;;4.97;4.60;;;;;;;;;;5114933;27;20204;-60
2022/08/19 12:06:07;;;;;;;4.55;4.35;;;;;;;;;;5104673;27;20234;-59
2022/08/19 12:08:54;;;;;;;4.70;4.50;;;;;;;;;;5117825;27;20657;-59
2022/08/19 12:11:41;;;;;;;5.00;4.70;;;;;;;;;;5105832;27;20219;-59
2022/08/19 12:14:30;;;;;;;4.55;4.35;;;;;;;;;;5121815;27;20219;-58
2022/08/19 12:17:17;;;;;;;4.85;4.65;;;;;;;;;;5115959;27;20227;-59
2022/08/19 12:20:06;;;;;;;4.70;4.50;;;;;;;;;;5117125;27;20236;-59
2022/08/19 12:22:54;;;;;;;5.00;4.70;;;;;;;;;;5115822;27;20714;-59
2022/08/19 12:25:51;;;;;;;4.30;4.10;;;;;;;;;;5120682;27;20304;-59
2022/08/19 12:28:39;;;;;;;4.70;4.50;;;;;;;;;;5116834;27;20212;-59
2022/08/19 12:31:26;;;;;;;4.55;4.35;;;;;;;;;;5105862;27;20205;-60
2022/08/19 12:34:13;;;;;;;4.80;4.60;;;;;;;;;;5109684;27;20205;-59
2022/08/19 12:37:03;;;;;;;4.93;4.70;;;;;;;;;;5112594;27;20695;-58
2022/08/19 12:39:51;;;;;;;4.68;4.47;;;;;;;;;;5106455;27;20372;-59
2022/08/19 12:42:42;;;;;;;4.80;4.60;;;;;;;;;;5107007;27;20252;-59
2022/08/19 12:45:29;;;;;;;4.82;4.53;;;;;;;;;;5119047;27;20201;-59
2022/08/19 12:48:16;;;;;;;4.68;4.47;;;;;;;;;;5117096;27;20209;-59
2022/08/19 12:51:09;;;;;;;4.90;4.70;;;;;;;;;;5113528;27;20208;-58
2022/08/19 12:53:56;;;;;;;4.63;4.32;;;;;;;;;;5118693;27;20669;-59
2022/08/19 12:56:44;;;;;;;5.00;4.70;;;;;;;;;;5117065;27;20232;-59
2022/08/19 12:59:34;;;;;;;4.68;4.47;;;;;;;;;;5107024;27;20677;-59
2022/08/19 13:02:22;;;;;;;4.20;4.00;;;;;;;;;;5116205;27;20205;-60
2022/08/19 13:05:12;;;;;;;4.30;4.10;;;;;;;;;;5101727;27;20726;-58
2022/08/19 13:08:00;;;;;;;4.60;4.40;;;;;;;;;;5120328;27;20205;-58
2022/08/19 13:10:47;;;;;;;4.50;4.30;;;;;;;;;;5097717;28;20575;-58
2022/08/19 13:13:35;;;;;;;4.43;4.22;;;;;;;;;;5119061;27;20212;-59
2022/08/19 13:16:23;;;;;;;4.40;4.20;;;;;;;;;;5103878;27;20231;-59
2022/08/19 13:19:11;;;;;;;4.85;4.65;;;;;;;;;;5118462;27;20205;-59
2022/08/19 13:21:58;;;;;;;4.20;4.00;;;;;;;;;;5098643;27;20662;-59
2022/08/19 13:24:45;;;;;;;4.57;4.38;;;;;;;;;;5116173;27;20205;-59
2022/08/19 13:27:32;;;;;;;4.60;4.30;;;;;;;;;;5111852;27;20568;-59
2022/08/19 13:33:26;;;;;;;4.40;4.20;;;;;;;;;;5110574;27;20563;-59
2022/08/19 13:36:13;;;;;;;4.40;4.20;;;;;;;;;;5117825;27;20236;-60
2022/08/19 13:39:00;;;;;;;4.50;4.30;;;;;;;;;;5116664;27;20205;-58
2022/08/19 13:41:49;;;;;;;4.55;4.35;;;;;;;;;;5118197;27;20270;-59
2022/08/19 13:44:36;;;;;;;4.60;4.40;;;;;;;;;;5113562;27;20220;-58
2022/08/19 13:47:25;;;;;;;5.22;4.93;;;;;;;;;;5117411;27;20206;-58
2022/08/19 13:50:14;;;;;;;4.80;4.60;;;;;;;;;;5107525;28;20289;-59
2022/08/19 13:53:02;;;;;;;4.63;4.43;;;;;;;;;;5119653;28;20261;-59
2022/08/19 13:55:50;;;;;;;4.60;4.40;;;;;;;;;;5115917;28;20226;-59
2022/08/19 13:58:37;;;;;;;4.10;3.90;;;;;;;;;;5101631;28;20193;-59
2022/08/19 14:01:26;;;;;;;4.50;4.30;;;;;;;;;;5111197;28;20208;-59
2022/08/19 14:04:14;;;;;;;4.45;4.25;;;;;;;;;;5106515;28;20305;-58
2022/08/19 14:07:01;;;;;;;4.38;4.18;;;;;;;;;;5116214;28;20311;-59
2022/08/19 14:09:48;;;;;;;4.80;4.60;;;;;;;;;;5096840;28;20201;-59
2022/08/19 14:12:35;;;;;;;4.40;4.20;;;;;;;;;;5111721;28;20206;-58
2022/08/19 14:15:23;;;;;;;4.47;4.28;;;;;;;;;;5112958;28;20281;-58
2022/08/19 14:18:11;;;;;;;4.20;4.00;;;;;;;;;;5118079;28;20201;-59
2022/08/19 14:20:59;;;;;;;4.35;4.15;;;;;;;;;;5104055;28;20207;-59
2022/08/19 14:23:47;;;;;;;4.43;4.22;;;;;;;;;;5114341;27;20202;-59
2022/08/19 14:26:34;;;;;;;4.50;4.30;;;;;;;;;;5117087;27;20198;-59
2022/08/19 14:29:21;;;;;;;4.20;4.00;;;;;;;;;;5120380;27;20292;-58
2022/08/19 14:32:08;;;;;;;4.28;4.07;;;;;;;;;;5106751;27;20202;-59
2022/08/19 14:34:55;;;;;;;4.45;4.25;;;;;;;;;;5111263;27;20301;-59
2022/08/19 14:37:45;;;;;;;4.47;4.28;;;;;;;;;;5103815;27;20218;-59
2022/08/19 14:40:32;;;;;;;4.60;4.40;;;;;;;;;;5119409;27;20258;-59
2022/08/19 14:43:19;;;;;;;4.65;4.45;;;;;;;;;;5115908;27;20212;-59
2022/08/19 14:46:07;;;;;;;4.93;4.63;;;;;;;;;;5122296;27;20213;-59
2022/08/19 14:48:55;;;;;;;4.40;4.20;;;;;;;;;;5101887;27;20572;-59
2022/08/19 14:51:42;;;;;;;4.30;4.10;;;;;;;;;;5122599;27;20244;-58
2022/08/19 14:54:31;;;;;;;4.35;4.15;;;;;;;;;;5114135;27;20231;-59
2022/08/19 14:57:18;;;;;;;4.50;4.30;;;;;;;;;;5121861;27;20254;-59
2022/08/19 15:00:07;;;;;;;4.85;4.55;;;;;;;;;;5109958;27;20208;-59
2022/08/19 15:02:54;;;;;;;4.38;4.18;;;;;;;;;;5108236;27;20225;-59
2022/08/19 15:05:41;;;;;;;5.20;4.90;;;;;;;;;;5115905;27;20241;-59
2022/08/19 15:08:30;;;;;;;4.53;4.32;;;;;;;;;;5124400;27;20201;-59
2022/08/19 15:11:20;;;;;;;4.30;4.10;;;;;;;;;;5121525;27;20690;-59
2022/08/19 15:14:08;;;;;;;4.40;4.20;;;;;;;;;;5108340;27;20210;-58
2022/08/19 15:16:55;;;;;;;4.25;4.05;;;;;;;;;;5116029;27;20221;-59
2022/08/19 15:19:42;;;;;;;4.13;3.92;;;;;;;;;;5102803;28;20213;-59
2022/08/19 15:22:29;;;;;;;4.13;3.92;;;;;;;;;;5118185;27;20206;-59
2022/08/19 15:25:20;;;;;;;4.63;4.43;;;;;;;;;;5118185;27;20225;-59
2022/08/19 15:28:10;;;;;;;4.25;4.05;;;;;;;;;;5115074;27;20603;-59
2022/08/19 15:30:57;;;;;;;4.35;4.15;;;;;;;;;;5115550;27;20213;-59
2022/08/19 15:33:44;;;;;;;4.20;4.00;;;;;;;;;;5112880;27;20208;-58
2022/08/19 15:36:31;;;;;;;4.32;4.13;;;;;;;;;;5114093;27;20253;-59
2022/08/19 15:39:20;;;;;;;3.95;3.75;;;;;;;;;;5119066;27;20692;-59
2022/08/19 15:42:07;;;;;;;4.47;4.28;;;;;;;;;;5115876;27;20206;-58
2022/08/19 15:44:55;;;;;;;4.40;4.20;;;;;;;;;;5117852;27;20675;-59
2022/08/19 15:47:43;;;;;;;4.28;4.07;;;;;;;;;;5106869;27;20209;-58
2022/08/19 15:50:31;;;;;;;4.40;4.20;;;;;;;;;;5119578;27;20609;-58
2022/08/19 15:53:18;;;;;;;4.30;4.10;;;;;;;;;;5101694;27;20210;-59
2022/08/19 15:56:06;;;;;;;4.18;3.97;;;;;;;;;;5121537;27;20235;-60
2022/08/19 16:08:10;;;;;;;4.30;4.10;;;;;;;;;;5111467;27;20229;-59
2022/08/19 16:10:57;;;;;;;3.88;3.78;;;;;;;;;;5116825;27;20205;-59
2022/08/19 16:13:44;;;;;;;4.30;4.10;;;;;;;;;;5106398;27;20209;-58
2022/08/19 16:16:34;;;;;;;4.15;3.95;;;;;;;;;;5119722;27;20232;-59
2022/08/19 16:19:23;;;;;;;4.50;4.20;;;;;;;;;;5118707;27;20198;-59
2022/08/19 16:22:10;;;;;;;4.50;4.30;;;;;;;;;;5118843;27;20208;-59
2022/08/19 16:24:57;;;;;;;4.38;4.18;;;;;;;;;;5115728;27;20267;-59
2022/08/19 16:27:44;;;;;;;4.60;4.40;;;;;;;;;;5118833;27;20205;-59
2022/08/19 16:30:31;;;;;;;4.10;3.90;;;;;;;;;;5118290;27;20617;-58
2022/08/19 16:33:18;;;;;;;4.38;4.18;;;;;;;;;;5112912;27;20201;-58
2022/08/19 16:36:07;;;;;;;4.20;4.00;;;;;;;;;;5105462;27;20226;-59
2022/08/19 16:38:55;;;;;;;4.18;3.97;;;;;;;;;;5121072;27;20212;-59
2022/08/19 16:41:44;;;;;;;4.43;4.22;;;;;;;;;;5101021;28;20194;-58
2022/08/19 16:44:31;;;;;;;4.10;3.90;;;;;;;;;;5119330;27;20225;-59
2022/08/19 16:47:18;;;;;;;4.30;4.10;;;;;;;;;;5108146;27;20206;-58
2022/08/19 16:50:07;;;;;;;4.18;3.97;;;;;;;;;;5117901;27;20661;-58
2022/08/19 16:52:57;;;;;;;4.32;4.13;;;;;;;;;;5103667;27;20285;-58
2022/08/19 16:55:45;;;;;;;4.00;3.85;;;;;;;;;;5117906;27;20372;-59
2022/08/19 16:58:33;;;;;;;4.40;4.20;;;;;;;;;;5109437;27;20277;-59
2022/08/19 17:01:20;;;;;;;4.40;4.20;;;;;;;;;;5107823;27;20258;-58
2022/08/19 17:04:07;;;;;;;4.22;4.03;;;;;;;;;;5099021;27;20202;-59
2022/08/19 17:06:54;;;;;;;4.60;4.40;;;;;;;;;;5115971;27;20250;-58
2022/08/19 17:09:43;;;;;;;4.50;4.30;;;;;;;;;;5105607;27;20219;-58
2022/08/19 17:12:30;;;;;;;4.30;4.10;;;;;;;;;;5119984;27;20209;-59
2022/08/19 17:15:18;;;;;;;4.32;4.13;;;;;;;;;;5096683;28;20272;-58
2022/08/19 17:18:07;;;;;;;4.20;4.00;;;;;;;;;;5122654;27;20591;-59
2022/08/19 17:20:55;;;;;;;4.45;4.25;;;;;;;;;;5101036;28;20206;-58
2022/08/19 17:23:42;;;;;;;4.22;4.03;;;;;;;;;;5117276;27;20235;-59
2022/08/19 17:26:31;;;;;;;4.38;4.18;;;;;;;;;;5117016;27;20326;-58